Rubén Martín

Scout - Mallorca
5 Dez 2027
Sonntag
Verarbeitung

Persönlichkeit

Anpassungsfähigkeit (18) Ehrgeiz (8) Kontroverse (1) Loyalität (14) Druck (1) Professionalität (7) Fairness (4) Temperament (16)

Profil

Trainerstil Demokratisch
Lizenz Kontinentale A
Entschlossenheit 8
Menschenführung 12
Motivation 9
Disziplin 10
Arbeitszufriedenheit
96%
Ermüdung
0%
Rolle Scout
Gehalt 57.5K p/W
Vertrag 14.03.2030

Leistung

Verhalten Gut
Trainingseffektivität
35%
Spielerentwicklung
55%
Verletzungsprävention
60%
Taktische Umsetzung
55%

Letzte Ereignisse

Nahm an einer Scouting-Besprechung teil jetzt
Nahm an einer Scouting-Besprechung teil 7T her
Nahm an einer Scouting-Besprechung teil 7T her
Spiel beobachtet 7T her
Nahm an einer Scouting-Besprechung teil 14T her
Nahm an einer Scouting-Besprechung teil 14T her
Spiel beobachtet 14T her
Spiel beobachtet 21T her

Aktuell beobachtet

138
Spieler Verein Status Fähigkeit Vertrauen Beobachtet Zuletzt beobachtet Letzte Stimme
Lucas Bergvall Tottenham Aktiv 147 / 155 40% 1 22.06.2027 -
Buba Sangaré Gijón Aktiv 133 / 140 40% 1 22.06.2027 -
Celías Ingenthron Platense Aktiv 108 / 127 40% 1 16.06.2027 -
Riley Owen Peterborough United Aktiv 92 / 109 40% 1 16.06.2027 -
Luiz Henrique Flamengo Verhandlung 142 / 143 68% 1 01.06.2027 -
Raúl Rangel Manchester United Verhandlung 132 / 132 66% 1 01.06.2027 -
Stanislav Agkatsev CSKA Moscow Verhandlung 132 / 133 66% 1 01.06.2027 -
Kota Tawaratsumida Gamba Osaka Verhandlung 133 / 136 66% 1 01.06.2027 -
Mikel Jauregizar Athletic Bilbao Aktiv 146 / 152 40% 4 30.05.2027 -
Yeremy Pino Crystal Palace Aktiv 155 / 156 40% 3 30.05.2027 -
Adrián Bernabé Parma Aktiv 146 / 144 40% 3 29.05.2027 -
Iliman N'Diaye Derby County Aktiv 172 / 165 40% 5 29.05.2027 -
Marvin Park Las Palmas Aktiv 133 / 138 40% 1 27.05.2027 -
Jesús Rodríguez Como Aktiv 149 / 151 40% 2 26.05.2027 -
Kevin Fulham Aktiv 151 / 156 40% 1 26.05.2027 -
Gonzalo Fulham Aktiv 153 / 150 40% 2 25.05.2027 -
Juan Cruz de los Santos Pacos de Ferreira Aktiv 121 / 130 40% 1 25.05.2027 -
Carlos Álvarez Club America Aktiv 139 / 126 40% 10 23.05.2027 -
Sergi Cardona Villarreal Aktiv 154 / 141 40% 4 23.05.2027 -
Bryan Gil Alavés Aktiv 151 / 156 40% 1 23.05.2027 -
Ethan Ampadu Leeds United Aktiv 146 / 148 40% 1 23.05.2027 -
Brennan Johnson Everton Aktiv 140 / 142 40% 1 21.05.2027 -
Boubacar Kamara Aston Villa Aktiv 173 / 164 40% 1 20.05.2027 -
Matías Soulé AS Roma Aktiv 154 / 154 40% 1 20.05.2027 -
Tim Iroegbunam Hull City Aktiv 137 / 131 40% 1 20.05.2027 -
Lucien Agoumé Sevilla Aktiv 133 / 133 40% 1 20.05.2027 -
Beñat Prados Málaga Aktiv 135 / 151 40% 3 19.05.2027 -
Ian Maatsen Aston Villa Aktiv 156 / 157 40% 1 19.05.2027 -
Iván Fresneda Sporting CP Aktiv 144 / 146 40% 4 18.05.2027 -
Sergi Altimira Sporting CP Aktiv 131 / 138 40% 1 18.05.2027 -
Guille Rosas Gijón Aktiv 134 / 139 40% 2 16.05.2027 Mehr Infos nötig
David Larrubia Málaga Aktiv 130 / 120 40% 1 14.05.2027 -
Miguel Rodríguez Caracas Aktiv 127 / 128 40% 3 12.05.2027 -
Kevin Schade Brentford Aktiv 149 / 142 40% 1 12.05.2027 -
Javi Rodríguez Celta Aktiv 139 / 160 40% 1 11.05.2027 -
Jacob Greaves Ipswich Town Aktiv 133 / 129 40% 1 11.05.2027 -
Beñat Turrientes Real Sociedad Aktiv 143 / 133 40% 2 09.05.2027 -
Ramón Terrats Getafe Aktiv 135 / 147 40% 1 07.05.2027 -
Tani Oluwaseyi Villarreal Aktiv 131 / 140 40% 1 07.05.2027 -
Takefusa Kubo Real Sociedad Aktiv 160 / 163 40% 2 06.05.2027 -
Scott Twine Bristol City Aktiv 130 / 122 40% 1 05.05.2027 -
Fer López Wolverhampton Aktiv 138 / 146 40% 1 04.05.2027 -
Amadou Onana Aston Villa Aktiv 148 / 152 40% 3 03.05.2027 -
Óscar Mingueza Crystal Palace Aktiv 154 / 146 40% 3 02.05.2027 -
Hugo Álvarez Celta Aktiv 153 / 143 40% 1 02.05.2027 -
Pau Víctor Braga Aktiv 151 / 132 40% 1 01.05.2027 -
Flavien-Enzo Boyomo Osasuna Aktiv 154 / 154 40% 1 30.04.2027 -
Rumarn Burrell Queens Park Rangers Aktiv 122 / 129 40% 1 30.04.2027 -
Georges Mikautadze Villarreal Aktiv 142 / 149 40% 1 28.04.2027 -
Unai Gómez Udinese Aktiv 131 / 134 40% 1 27.04.2027 -
Fran García Betis Aktiv 145 / 152 40% 2 25.04.2027 -
Omar El Hilali Espanyol Aktiv 143 / 140 40% 4 22.04.2027 -
Georginio Rutter Olympique Lyonnais Aktiv 153 / 146 40% 1 22.04.2027 -
Carlos Romero Villarreal Aktiv 139 / 158 40% 4 21.04.2027 -
Iván Gil Eibar Aktiv 119 / 133 40% 1 21.04.2027 -
Emmanuel Nweke Smouha Aktiv 88 / 112 40% 2 18.04.2027 -
Nico Melamed Almería Aktiv 126 / 139 40% 1 14.04.2027 -
Mamadou Doumbia Watford Aktiv 124 / 130 40% 1 14.04.2027 -
Deivid Washington RC Strasbourg Aktiv 115 / 124 40% 1 13.04.2027 -
Lorenzo De Leo Renate Aktiv 98 / 98 40% 1 13.04.2027 -
Oihan Sancet Athletic Bilbao Aktiv 166 / 166 40% 2 12.04.2027 -
Liam Delap Nottingham Forest Aktiv 140 / 152 40% 1 11.04.2027 -
Assane Diao Fiorentina Aktiv 148 / 148 40% 4 10.04.2027 -
Sven Botman Newcastle United Aktiv 157 / 165 40% 1 08.04.2027 -
Brooke Norton-Cuffy Hull City Aktiv 130 / 138 40% 1 08.04.2027 -
Álex Calatrava Espanyol Aktiv 149 / 143 40% 1 07.04.2027 -
Iwan Morgan Grimsby Town Aktiv 105 / 112 40% 2 03.04.2027 -
Roberto Fernández Braga Aktiv 136 / 144 40% 1 02.04.2027 -
Bitello Alavés Aktiv 128 / 134 40% 1 01.04.2027 -
Juanlu Bournemouth Aktiv 143 / 151 40% 2 31.03.2027 -
Sorriso Famalicao Aktiv 126 / 121 40% 1 31.03.2027 -
Mattéo Guendouzi Monaco Aktiv 140 / 154 40% 1 30.03.2027 -
Yankuba Minteh Brighton Aktiv 153 / 152 40% 2 29.03.2027 -
Carlos Alcaraz Everton Aktiv 153 / 141 40% 1 29.03.2027 -
José Ángel Carmona Sevilla Aktiv 143 / 139 40% 1 26.03.2027 -
Sergio Gómez Real Sociedad Aktiv 149 / 139 40% 1 26.03.2027 -
Manu Koné AS Roma Aktiv 176 / 155 40% 1 26.03.2027 -
Martim Neto Elche Aktiv 128 / 139 40% 1 24.03.2027 -
Nicolas Jackson Aston Villa Aktiv 138 / 151 40% 1 24.03.2027 -
Diego Lainez Tigres Aktiv 148 / 119 40% 1 23.03.2027 -
Jan Virgili Club Brugge Aktiv 142 / 134 40% 1 23.03.2027 -
Víctor Gómez Braga Aktiv 142 / 134 40% 1 23.03.2027 -
Facundo Salinas Vélez Aktiv 83 / 105 40% 1 22.03.2027 -
Mateus Mané Liverpool Aktiv 135 / 149 40% 1 22.03.2027 -
Ez Abde Betis Aktiv 139 / 156 40% 2 21.03.2027 -
Murillo Nottingham Forest Aktiv 154 / 160 40% 1 20.03.2027 -
Gabriel Dufour Chamois Niortais Aktiv 125 / 126 40% 3 19.03.2027 -
Amaury Morales Pumas UNAM Aktiv 125 / 123 40% 1 19.03.2027 -
Nahuel da Silva Montevideo City Torque Aktiv 101 / 116 40% 1 17.03.2027 -
Xavier Biscayzacú Gimnasia La Plata Aktiv 132 / 131 40% 1 17.03.2027 -
Antony Betis Aktiv 142 / 160 40% 1 16.03.2027 -
Tiziano Dornell Almagro Aktiv 118 / 115 40% 1 16.03.2027 -
David Fernández Veracruz Aktiv 110 / 122 40% 1 15.03.2027 -
Malo Gusto Olympique de Marseille Aktiv 155 / 154 40% 2 13.03.2027 -
Richard Ledezma Guadalajara Aktiv 146 / 145 40% 1 04.03.2027 -
Ramón Juárez Club America Aktiv 151 / 132 40% 1 03.03.2027 -
Kike Salas Sevilla Aktiv 148 / 138 40% 1 02.03.2027 -
Igor Nikić Mirandés Aktiv 107 / 125 40% 2 31.12.2026 -
Elia Caprile Cagliari Aktiv 130 / 150 40% 1 31.12.2026 -
Tomás Abdelnur Santos Laguna Aktiv 81 / 88 40% 2 28.12.2026 -
Gabriel Brazão Santos Aktiv 131 / 139 40% 1 28.12.2026 -
Radek Vítek Middlesbrough Aktiv 136 / 126 40% 1 26.12.2026 -
Lander Astiazarán Real Sociedad Aktiv 101 / 112 67% 1 26.12.2026 -
Chemsdine Talbi Sunderland Aktiv 140 / 150 40% 2 17.12.2026 -
Julen Agirrezabala Racing Santander Aktiv 134 / 149 40% 1 16.12.2026 -
Ignacio Ovando Rosario Central Aktiv 93 / 111 40% 1 11.12.2026 -
Valentino Acuña Newell's Old Boys Aktiv 114 / 115 40% 1 11.12.2026 -
Tomás Aranda Boca Juniors Aktiv 108 / 128 40% 2 09.12.2026 -
Nicolás Sumavil Platense Aktiv 107 / 109 40% 4 07.12.2026 -
Gorka Gorosabel Real Sociedad Aktiv 115 / 125 40% 1 06.12.2026 -
Grégoire Coudert Burnley Aktiv 120 / 123 40% 4 05.12.2026 -
Melker Ellborg Sunderland Aktiv 109 / 122 40% 1 03.12.2026 -
Jonmi Magunagoitia Eibar Aktiv 124 / 123 40% 4 02.12.2026 -
Sem Westerveld Zaragoza Aktiv 101 / 106 40% 1 02.12.2026 -
Galo Galarza Estudiantes Aktiv 111 / 102 40% 1 02.12.2026 -
Diego Gaitán Maipú Aktiv 112 / 109 40% 3 30.11.2026 -
Noah Sadiki Sunderland Aktiv 150 / 147 40% 1 30.11.2026 -
Juan Cruz Meza River Plate Aktiv 92 / 111 40% 1 25.11.2026 -
Matías Fernández-Pardo Newcastle United Aktiv 143 / 139 40% 2 24.11.2026 -
Antonio Gomis Vizela Aktiv 130 / 114 40% 2 22.11.2026 -
Gianluigi Donnarumma Inter Aktiv 174 / 164 40% 5 19.11.2026 -
James Trafford Leeds United Aktiv 144 / 131 40% 2 16.11.2026 -
Nahuel Manganelli San Martín Aktiv 120 / 115 40% 1 12.11.2026 -
Josh Keeley Luton Town Aktiv 111 / 122 40% 1 11.11.2026 -
Patrick Preciado Deportivo Pasto Aktiv 112 / 109 40% 1 06.11.2026 -
Guilherme Fernandes Córdoba Aktiv 133 / 132 40% 1 28.10.2026 -
Tomás Durso Atlético Tucumán Aktiv 113 / 119 40% 1 16.10.2026 -
Lucas Agazzi Defensor Sporting Aktiv 114 / 127 40% 1 10.10.2026 -
Samuel Lucero Defensa y Justicia Aktiv 116 / 111 40% 1 08.10.2026 -
Alex Verón Vélez Aktiv 96 / 111 40% 1 07.10.2026 -
Nazareno Kihm Ferro Carril Oeste Aktiv 106 / 109 40% 1 07.10.2026 -
Santiago Montiel Independiente Aktiv 128 / 119 40% 1 17.09.2026 -
Federico Navarro Rosario Central Aktiv 133 / 131 40% 1 17.09.2026 -
Tiago Palacios Estudiantes Aktiv 128 / 127 40% 1 14.09.2026 -
Nico Williams Athletic Bilbao Aktiv 176 / 167 40% 1 13.09.2026 -
Alan Velasco Boca Juniors Aktiv 122 / 137 40% 1 13.09.2026 -
Matías Galarza Talleres Aktiv 130 / 133 40% 1 08.09.2026 -
Luismi Cruz Deportivo La Coruña Aktiv 135 / 122 48% 1 24.08.2026 -